Time;durP1;ratioP1;P1;durP2;ratioP2;P2;SDS_P1;SDS_P2;PMS_P1;PMS_P2;Temp;Humidity;BMP_temperature;BMP_pressure;BME280_temperature;BME280_humidity;BME280_pressure;Samples;Min_cycle;Max_cycle;Signal;HPM_P1;HPM_P2
2023/08/21 00:02:00;;;;;;;3.25;1.35;;;19.50;99.90;;;;;;5061698;28;20047;-44
2023/08/21 00:04:25;;;;;;;4.75;1.77;;;19.50;99.90;;;;;;5055586;28;20472;-43
2023/08/21 00:06:51;;;;;;;3.90;1.95;;;19.60;99.90;;;;;;5068598;28;20704;-39
2023/08/21 00:09:16;;;;;;;2.75;1.63;;;19.60;99.90;;;;;;5075496;28;20120;-39
2023/08/21 00:11:42;;;;;;;5.75;1.95;;;19.60;99.90;;;;;;5074661;28;20495;-39
2023/08/21 00:14:08;;;;;;;1.73;1.20;;;19.60;99.90;;;;;;5072122;28;20033;-40
2023/08/21 00:16:34;;;;;;;11.95;1.75;;;19.60;99.90;;;;;;5072021;28;20059;-38
2023/08/21 00:19:00;;;;;;;2.47;1.38;;;19.50;99.90;;;;;;5067907;28;20050;-41
2023/08/21 00:21:25;;;;;;;4.82;1.17;;;19.50;99.90;;;;;;5074516;28;20029;-40
2023/08/21 00:23:51;;;;;;;6.82;1.40;;;19.50;99.90;;;;;;5069263;28;20048;-39
2023/08/21 00:26:17;;;;;;;1.80;1.23;;;19.50;99.90;;;;;;5075119;28;20016;-40
2023/08/21 00:28:43;;;;;;;4.75;1.00;;;19.40;99.90;;;;;;5075254;28;20020;-53
2023/08/21 00:31:08;;;;;;;2.58;1.20;;;19.40;99.90;;;;;;5075294;28;20040;-51
2023/08/21 00:33:34;;;;;;;2.50;1.45;;;19.40;99.90;;;;;;5073659;28;20028;-41
2023/08/21 00:36:00;;;;;;;3.88;1.30;;;19.40;99.90;;;;;;5067622;28;20027;-41
2023/08/21 00:38:26;;;;;;;2.15;1.33;;;19.40;99.90;;;;;;5072114;28;20477;-44
2023/08/21 00:40:52;;;;;;;4.80;1.48;;;19.40;99.90;;;;;;5074567;28;20025;-41
2023/08/21 00:43:18;;;;;;;5.57;1.80;;;19.40;99.90;;;;;;5074081;28;20052;-42
2023/08/21 00:45:46;;;;;;;3.65;1.25;;;19.40;99.90;;;;;;5059104;28;20076;-42
2023/08/21 00:48:12;;;;;;;5.53;1.63;;;19.40;99.90;;;;;;5068637;28;20016;-40
2023/08/21 00:50:39;;;;;;;2.92;1.67;;;19.50;99.90;;;;;;5071754;28;20036;-39
2023/08/21 00:53:06;;;;;;;3.25;1.20;;;19.40;99.90;;;;;;5074674;28;20028;-39
2023/08/21 00:55:32;;;;;;;;;;;19.40;99.90;;;;;;5074781;28;20393;-42
2023/08/21 00:57:59;;;;;;;4.78;1.38;;;19.40;99.90;;;;;;5072566;28;19909;-40
2023/08/21 01:00:27;;;;;;;3.25;1.60;;;19.40;99.90;;;;;;5074228;28;20036;-43
2023/08/21 01:02:52;;;;;;;4.70;1.58;;;19.40;99.90;;;;;;5053732;28;20052;-45
2023/08/21 01:05:19;;;;;;;3.13;1.23;;;19.40;99.90;;;;;;5072549;28;20504;-43
2023/08/21 01:08:01;;;;;;;3.97;1.10;;;19.40;99.90;;;;;;5070627;28;20116;-40
2023/08/21 01:10:47;;;;;;;3.13;1.50;;;19.40;99.90;;;;;;5073637;28;20036;-39
2023/08/21 01:13:52;;;;;;;2.15;1.15;;;19.40;99.90;;;;;;5074331;28;20029;-52
2023/08/21 01:16:19;;;;;;;4.90;1.27;;;19.40;99.90;;;;;;5072375;28;20039;-52
2023/08/21 01:18:48;;;;;;;2.67;1.30;;;19.40;99.90;;;;;;5070850;28;20093;-53
2023/08/21 01:21:14;;;;;;;1.55;1.17;;;19.40;99.90;;;;;;5073581;28;20459;-52
2023/08/21 01:23:42;;;;;;;2.67;1.10;;;19.40;99.90;;;;;;5073501;28;20038;-40
2023/08/21 01:26:08;;;;;;;4.05;1.23;;;19.40;99.90;;;;;;5073331;28;20070;-41
2023/08/21 01:28:34;;;;;;;2.35;0.90;;;19.40;99.90;;;;;;5073974;28;20060;-52
2023/08/21 01:31:15;;;;;;;1.50;1.02;;;19.40;99.90;;;;;;5072438;28;20059;-51
2023/08/21 01:33:46;;;;;;;5.22;1.90;;;19.40;99.90;;;;;;5073047;28;20120;-51
2023/08/21 01:36:11;;;;;;;1.67;0.88;;;19.40;99.90;;;;;;5070829;28;20033;-52
2023/08/21 01:38:38;;;;;;;2.92;1.00;;;19.40;99.90;;;;;;5073968;28;20028;-53
2023/08/21 01:41:03;;;;;;;4.30;1.15;;;19.40;99.90;;;;;;5073539;28;20472;-41
2023/08/21 01:43:29;;;;;;;4.38;1.30;;;19.40;99.90;;;;;;5073608;28;20107;-51
2023/08/21 01:45:55;;;;;;;6.78;1.63;;;19.30;99.90;;;;;;5072715;28;20063;-53
2023/08/21 01:48:20;;;;;;;2.30;0.90;;;19.30;99.90;;;;;;5073131;28;20020;-53
2023/08/21 01:50:46;;;;;;;5.00;1.40;;;19.30;99.90;;;;;;5071147;28;20502;-52
2023/08/21 01:53:12;;;;;;;3.20;1.10;;;19.20;99.90;;;;;;5063104;28;20532;-50
2023/08/21 01:55:37;;;;;;;3.53;0.82;;;19.20;99.90;;;;;;5072365;28;20089;-52
2023/08/21 01:58:03;;;;;;;4.03;0.95;;;19.20;99.90;;;;;;5072010;28;20107;-54
2023/08/21 02:00:29;;;;;;;2.83;1.20;;;19.30;99.90;;;;;;5066282;28;20064;-52
2023/08/21 02:02:54;;;;;;;1.50;1.13;;;19.30;99.90;;;;;;5056588;28;20025;-54
2023/08/21 02:05:20;;;;;;;3.13;1.23;;;19.20;99.90;;;;;;5071615;28;20019;-53
2023/08/21 02:07:46;;;;;;;4.47;1.83;;;19.30;99.90;;;;;;5073027;28;20111;-52
2023/08/21 02:10:11;;;;;;;5.53;1.25;;;19.20;99.90;;;;;;5070993;28;20465;-53
2023/08/21 02:12:37;;;;;;;2.70;1.05;;;19.20;99.90;;;;;;5073359;28;20099;-53
2023/08/21 02:15:03;;;;;;;3.22;1.33;;;19.20;99.90;;;;;;5073020;28;20029;-51
2023/08/21 02:17:30;;;;;;;4.95;1.67;;;19.20;99.90;;;;;;5072865;28;20481;-49
2023/08/21 02:19:55;;;;;;;4.63;1.30;;;19.20;99.90;;;;;;5071312;28;20039;-54
2023/08/21 02:22:21;;;;;;;4.22;1.10;;;19.20;99.90;;;;;;5073080;28;20473;-53
2023/08/21 02:24:46;;;;;;;3.42;1.17;;;19.20;99.90;;;;;;5072762;28;20102;-52
2023/08/21 02:27:12;;;;;;;5.45;1.35;;;19.20;99.90;;;;;;5073008;28;20035;-53
2023/08/21 02:29:38;;;;;;;3.97;1.13;;;19.10;99.90;;;;;;5063735;28;20032;-52
2023/08/21 02:32:04;;;;;;;1.05;0.95;;;19.10;99.90;;;;;;5072690;28;20020;-51
2023/08/21 02:34:29;;;;;;;4.80;1.63;;;19.10;99.90;;;;;;5071910;28;20032;-53
2023/08/21 02:36:55;;;;;;;2.45;1.02;;;19.10;99.90;;;;;;5072775;28;20481;-53
2023/08/21 02:39:21;;;;;;;3.30;1.50;;;19.00;99.90;;;;;;5072761;28;20046;-53
2023/08/21 02:41:46;;;;;;;2.22;1.02;;;19.00;99.90;;;;;;5072877;28;20024;-52
2023/08/21 02:44:12;;;;;;;8.40;1.45;;;18.90;99.90;;;;;;5071358;28;20061;-52
2023/08/21 02:46:38;;;;;;;6.57;1.55;;;18.90;99.90;;;;;;5072685;28;20055;-53
2023/08/21 02:49:03;;;;;;;1.50;0.90;;;18.80;99.90;;;;;;5069330;28;20024;-52
2023/08/21 02:51:29;;;;;;;2.67;1.40;;;18.80;99.90;;;;;;5072696;28;20032;-51
2023/08/21 02:53:54;;;;;;;3.13;1.40;;;18.70;99.90;;;;;;5072725;28;20081;-50
2023/08/21 02:56:20;;;;;;;2.78;1.83;;;18.70;99.90;;;;;;5070843;28;20469;-53
2023/08/21 02:58:46;;;;;;;3.60;1.35;;;18.70;99.90;;;;;;5071068;28;20032;-52
2023/08/21 03:01:11;;;;;;;2.40;1.35;;;18.70;99.90;;;;;;5072591;28;20036;-52
2023/08/21 03:03:37;;;;;;;2.63;1.13;;;18.70;99.90;;;;;;5070480;28;20025;-50
2023/08/21 03:06:03;;;;;;;3.20;1.33;;;18.70;99.90;;;;;;5068026;28;20381;-52
2023/08/21 03:08:28;;;;;;;6.63;1.48;;;18.70;99.90;;;;;;5071111;28;20035;-52
2023/08/21 03:10:54;;;;;;;2.65;1.15;;;18.70;99.90;;;;;;5072472;28;20036;-53
2023/08/21 03:13:19;;;;;;;6.00;1.40;;;18.70;99.90;;;;;;5072451;28;20485;-51
2023/08/21 03:15:45;;;;;;;4.05;1.58;;;18.60;99.90;;;;;;5072568;28;20032;-52
2023/08/21 03:18:11;;;;;;;3.28;1.52;;;18.60;99.90;;;;;;5071618;28;20028;-53
2023/08/21 03:20:36;;;;;;;1.90;1.80;;;18.60;99.90;;;;;;5072405;28;20032;-52
2023/08/21 03:23:02;;;;;;;4.03;1.48;;;18.60;99.90;;;;;;5072235;28;20033;-51
2023/08/21 03:25:28;;;;;;;4.53;1.50;;;18.70;99.90;;;;;;5072038;28;20551;-52
2023/08/21 03:27:54;;;;;;;7.05;1.60;;;18.70;99.90;;;;;;5052574;28;20017;-49
2023/08/21 03:30:19;;;;;;;5.40;1.25;;;18.70;99.90;;;;;;5068681;28;20082;-51
2023/08/21 03:32:45;;;;;;;3.67;1.60;;;18.60;99.90;;;;;;5071437;28;20032;-53
2023/08/21 03:35:11;;;;;;;3.55;1.10;;;18.60;99.90;;;;;;5071433;28;20369;-53
2023/08/21 03:37:37;;;;;;;1.58;1.45;;;18.60;99.90;;;;;;5052522;28;20055;-53
2023/08/21 03:40:03;;;;;;;3.88;1.38;;;18.60;99.90;;;;;;5057693;28;20028;-53
2023/08/21 03:42:29;;;;;;;5.15;1.25;;;18.60;99.90;;;;;;5072524;28;20031;-52
2023/08/21 03:44:55;;;;;;;4.63;1.25;;;18.50;99.90;;;;;;5072232;28;20025;-54
2023/08/21 03:47:21;;;;;;;7.53;1.60;;;18.50;99.90;;;;;;5070093;28;20397;-51
2023/08/21 03:49:48;;;;;;;4.38;2.60;;;18.40;99.90;;;;;;5070129;28;20036;-52
2023/08/21 03:52:13;;;;;;;5.03;1.92;;;18.40;99.90;;;;;;5072166;28;20082;-51
2023/08/21 03:54:39;;;;;;;2.72;1.50;;;18.40;99.90;;;;;;5072153;28;20032;-52
2023/08/21 03:57:05;;;;;;;2.08;1.48;;;18.40;99.90;;;;;;5071816;28;20063;-52
2023/08/21 03:59:31;;;;;;;4.47;1.58;;;18.40;99.90;;;;;;5071696;28;20033;-51
2023/08/21 04:01:56;;;;;;;5.43;1.23;;;18.30;99.90;;;;;;5075921;28;20032;-53
2023/08/21 04:04:22;;;;;;;3.92;1.42;;;18.30;99.90;;;;;;5074738;28;20107;-50
2023/08/21 04:06:47;;;;;;;4.85;1.42;;;18.30;99.90;;;;;;5075605;28;20017;-53
2023/08/21 04:09:13;;;;;;;4.55;1.42;;;18.30;99.90;;;;;;5075587;28;20029;-53
2023/08/21 04:11:39;;;;;;;2.97;1.23;;;18.30;99.90;;;;;;5074774;28;20571;-52
2023/08/21 04:14:04;;;;;;;2.85;1.13;;;18.30;99.90;;;;;;5073719;28;20036;-52
2023/08/21 04:16:30;;;;;;;3.60;1.30;;;18.30;99.90;;;;;;5072623;28;20523;-53
2023/08/21 04:18:56;;;;;;;2.47;1.55;;;18.30;99.90;;;;;;5074057;28;20131;-49
2023/08/21 04:21:22;;;;;;;1.17;0.93;;;18.30;99.90;;;;;;5075257;28;20029;-52
2023/08/21 04:23:48;;;;;;;4.53;1.13;;;18.40;99.90;;;;;;5072780;28;20040;-51
2023/08/21 04:26:14;;;;;;;4.03;1.30;;;18.30;99.90;;;;;;5055798;28;20031;-53
2023/08/21 04:28:39;;;;;;;2.22;1.40;;;18.30;99.90;;;;;;5059672;28;20388;-52
2023/08/21 04:31:06;;;;;;;6.70;1.20;;;18.40;99.90;;;;;;5060989;28;20036;-53
2023/08/21 04:33:32;;;;;;;2.38;1.20;;;18.40;99.90;;;;;;5064374;28;20048;-52
2023/08/21 04:35:58;;;;;;;4.70;1.20;;;18.40;99.90;;;;;;5075015;28;20089;-52
2023/08/21 04:38:23;;;;;;;3.60;1.33;;;18.40;99.90;;;;;;5071483;28;20447;-52
2023/08/21 04:40:49;;;;;;;4.28;1.20;;;18.40;99.90;;;;;;5073085;28;20112;-52
2023/08/21 04:43:15;;;;;;;2.22;1.30;;;18.40;99.90;;;;;;5074936;28;20021;-54
2023/08/21 04:45:52;;;;;;;3.38;1.80;;;18.40;99.90;;;;;;5063641;28;20025;-53
2023/08/21 04:48:19;;;;;;;3.38;1.17;;;18.40;99.90;;;;;;5062063;28;20116;-51
2023/08/21 04:50:46;;;;;;;4.00;1.88;;;18.40;99.90;;;;;;5074808;28;20035;-51
2023/08/21 04:53:11;;;;;;;3.73;1.20;;;18.40;99.90;;;;;;5074787;28;20396;-51
2023/08/21 04:55:40;;;;;;;3.85;1.35;;;18.30;99.90;;;;;;5074080;28;20021;-52
2023/08/21 04:58:06;;;;;;;6.30;1.50;;;18.30;99.90;;;;;;5056653;28;20028;-51
2023/08/21 05:00:31;;;;;;;6.00;1.75;;;18.30;99.90;;;;;;5074768;28;20021;-52
2023/08/21 05:02:57;;;;;;;7.65;2.08;;;18.30;99.90;;;;;;5074652;28;20073;-53
2023/08/21 05:05:23;;;;;;;4.35;2.03;;;18.30;99.90;;;;;;5074116;28;20025;-52
2023/08/21 05:07:48;;;;;;;2.97;1.80;;;18.30;99.90;;;;;;5074393;28;20028;-52
2023/08/21 05:10:14;;;;;;;3.67;1.80;;;18.30;99.90;;;;;;5074361;28;20036;-52
2023/08/21 05:12:40;;;;;;;4.78;2.00;;;18.30;99.90;;;;;;5074475;28;20587;-52
2023/08/21 05:15:06;;;;;;;7.20;2.30;;;18.30;99.90;;;;;;5074370;28;20481;-52
2023/08/21 05:17:31;;;;;;;1.92;1.60;;;18.30;99.90;;;;;;5073427;28;20028;-52
2023/08/21 05:19:57;;;;;;;7.88;1.90;;;18.30;99.90;;;;;;5074072;28;20039;-51
2023/08/21 05:22:23;;;;;;;3.28;1.33;;;18.30;99.90;;;;;;5073932;28;20132;-51
2023/08/21 05:24:48;;;;;;;4.82;1.48;;;18.40;99.90;;;;;;5064952;28;20048;-53
2023/08/21 05:27:14;;;;;;;10.57;2.13;;;18.40;99.90;;;;;;5053834;28;20025;-52
2023/08/21 05:29:39;;;;;;;6.15;1.83;;;18.50;99.90;;;;;;5035835;28;20025;-52
2023/08/21 05:32:05;;;;;;;3.55;1.67;;;18.50;99.90;;;;;;5049375;28;20078;-50
2023/08/21 05:34:31;;;;;;;2.90;1.42;;;18.60;99.90;;;;;;5046212;28;20408;-50
2023/08/21 05:36:57;;;;;;;2.92;1.23;;;18.60;99.90;;;;;;5033963;28;20033;-51
2023/08/21 05:39:22;;;;;;;5.30;1.33;;;18.70;99.90;;;;;;5041799;28;20025;-52
2023/08/21 05:41:48;;;;;;;3.80;1.90;;;18.80;99.90;;;;;;5053499;28;20028;-51
2023/08/21 05:44:14;;;;;;;2.83;1.45;;;18.80;99.90;;;;;;5040381;28;20025;-52
2023/08/21 05:46:39;;;;;;;1.77;1.45;;;18.90;99.90;;;;;;5053506;28;20493;-53
2023/08/21 05:49:05;;;;;;;3.55;1.67;;;18.90;99.90;;;;;;5053373;28;20060;-39
2023/08/21 05:51:31;;;;;;;5.47;1.75;;;19.10;99.90;;;;;;5053420;28;20099;-41
2023/08/21 05:53:56;;;;;;;4.85;1.60;;;19.20;99.90;;;;;;5051917;28;20122;-39
2023/08/21 05:56:22;;;;;;;6.47;1.63;;;19.30;99.90;;;;;;5041889;28;20032;-43
2023/08/21 05:58:48;;;;;;;3.65;1.92;;;19.30;99.90;;;;;;5034904;28;20032;-42
2023/08/21 06:01:14;;;;;;;4.85;1.88;;;19.40;99.90;;;;;;5052908;28;20605;-39
2023/08/21 06:03:39;;;;;;;3.50;1.45;;;19.50;99.90;;;;;;5053254;28;20027;-40
2023/08/21 06:06:05;;;;;;;5.55;1.50;;;19.50;99.90;;;;;;5052849;28;20473;-44
2023/08/21 06:08:31;;;;;;;4.20;1.92;;;19.60;99.90;;;;;;5053222;28;20032;-42
2023/08/21 06:10:57;;;;;;;3.08;1.67;;;19.60;99.90;;;;;;5053466;28;20013;-41
2023/08/21 06:13:23;;;;;;;4.03;1.35;;;19.60;99.90;;;;;;5045839;28;20021;-40
2023/08/21 06:15:48;;;;;;;4.07;1.55;;;19.60;99.90;;;;;;5048236;28;20025;-52
2023/08/21 06:18:15;;;;;;;3.70;1.85;;;19.60;99.90;;;;;;5049114;28;20423;-53
2023/08/21 06:20:44;;;;;;;3.28;1.45;;;19.60;99.90;;;;;;5050026;28;20123;-52
2023/08/21 06:23:11;;;;;;;6.07;1.90;;;19.60;99.90;;;;;;5052805;28;20021;-51
2023/08/21 06:25:37;;;;;;;3.80;1.52;;;19.70;99.90;;;;;;5048512;28;20044;-50
2023/08/21 06:28:03;;;;;;;4.22;1.60;;;19.80;99.90;;;;;;5072916;28;20032;-51
2023/08/21 06:30:29;;;;;;;3.72;1.23;;;19.90;99.90;;;;;;5053947;28;20060;-50
2023/08/21 06:32:58;;;;;;;3.67;1.58;;;20.10;99.90;;;;;;5072964;28;20055;-51
2023/08/21 06:35:23;;;;;;;6.70;1.75;;;20.20;99.90;;;;;;5070403;28;20017;-52
2023/08/21 06:37:49;;;;;;;4.53;1.73;;;20.40;99.90;;;;;;5073084;28;20036;-53
2023/08/21 06:40:14;;;;;;;3.80;1.48;;;20.60;99.90;;;;;;5068579;28;20472;-52
2023/08/21 06:42:40;;;;;;;3.95;1.42;;;20.70;99.90;;;;;;5073068;28;20070;-52
2023/08/21 06:45:06;;;;;;;6.20;1.20;;;20.90;99.90;;;;;;5072732;28;20020;-51
2023/08/21 06:47:32;;;;;;;3.53;1.27;;;20.90;99.90;;;;;;5071654;28;20033;-52
2023/08/21 06:50:00;;;;;;;4.15;1.30;;;21.00;99.90;;;;;;5071804;28;20074;-51
2023/08/21 06:52:26;;;;;;;;;;;21.00;99.90;;;;;;5072263;28;20029;-52
2023/08/21 06:54:51;;;;;;;6.45;1.75;;;21.10;99.90;;;;;;5068770;28;19930;-41
2023/08/21 06:57:17;;;;;;;5.95;1.33;;;21.20;99.90;;;;;;5069823;28;20380;-43
2023/08/21 06:59:43;;;;;;;4.97;1.48;;;21.20;99.90;;;;;;5066669;28;20465;-41
2023/08/21 07:02:08;;;;;;;4.93;1.27;;;21.20;99.90;;;;;;5071228;28;20028;-42
2023/08/21 07:04:34;;;;;;;5.18;1.35;;;21.30;99.90;;;;;;5067786;28;20086;-40
2023/08/21 07:06:59;;;;;;;4.30;1.48;;;21.40;99.90;;;;;;5071562;28;20473;-40
2023/08/21 07:09:25;;;;;;;1.52;1.10;;;21.40;99.90;;;;;;5070501;28;20020;-40
2023/08/21 07:11:51;;;;;;;2.30;1.52;;;21.60;99.90;;;;;;5072441;28;20070;-40
2023/08/21 07:14:17;;;;;;;7.75;1.40;;;21.70;99.90;;;;;;5072145;28;20056;-40
2023/08/21 07:16:43;;;;;;;5.22;1.45;;;21.80;99.90;;;;;;5072379;28;20473;-42
2023/08/21 07:19:09;;;;;;;5.65;1.80;;;22.00;99.90;;;;;;5071954;28;20020;-39
2023/08/21 07:21:36;;;;;;;6.95;1.13;;;22.20;99.90;;;;;;5072159;28;20495;-39
2023/08/21 07:24:05;;;;;;;2.35;0.93;;;22.30;99.90;;;;;;5053491;28;20020;-44
2023/08/21 07:29:15;;;;;;;8.98;1.08;;;22.30;99.90;;;;;;5059887;28;20425;-40
2023/08/21 07:31:40;;;;;;;1.77;0.77;;;22.20;99.90;;;;;;5071293;28;20036;-39
2023/08/21 07:34:06;;;;;;;3.80;1.00;;;22.20;99.90;;;;;;5071413;28;20397;-42
2023/08/21 07:36:32;;;;;;;14.15;1.88;;;22.40;99.90;;;;;;5074623;28;20516;-40
2023/08/21 07:38:58;;;;;;;7.57;1.40;;;22.50;99.90;;;;;;5075757;28;20028;-39
2023/08/21 07:41:23;;;;;;;8.13;1.42;;;22.70;99.90;;;;;;5075927;28;20562;-43
2023/08/21 07:43:49;;;;;;;2.97;0.82;;;22.80;99.90;;;;;;5071568;28;20515;-43
2023/08/21 07:46:18;;;;;;;11.32;1.63;;;22.90;99.90;;;;;;5075825;28;20016;-39
2023/08/21 07:48:45;;;;;;;14.38;0.80;;;23.00;99.90;;;;;;5075590;28;20100;-41
2023/08/21 07:51:11;;;;;;;2.20;1.30;;;23.10;99.90;;;;;;5073917;28;20029;-43
2023/08/21 07:53:36;;;;;;;7.18;1.73;;;23.10;99.90;;;;;;5073509;28;20404;-42
2023/08/21 07:56:03;;;;;;;4.68;1.25;;;23.20;99.90;;;;;;5072937;28;20082;-39
2023/08/21 07:58:30;;;;;;;2.83;1.10;;;23.30;99.90;;;;;;5071324;28;20453;-43
2023/08/21 08:00:56;;;;;;;1.17;0.63;;;23.40;99.90;;;;;;5073412;28;20054;-41
2023/08/21 08:03:21;;;;;;;4.18;0.75;;;23.30;99.90;;;;;;5074455;28;20303;-39
2023/08/21 08:05:47;;;;;;;3.35;1.33;;;23.10;99.90;;;;;;5072094;28;20469;-39
2023/08/21 08:08:13;;;;;;;4.57;0.98;;;23.00;99.90;;;;;;5074034;28;20017;-39
2023/08/21 08:10:40;;;;;;;5.38;1.73;;;22.80;99.90;;;;;;5074693;28;20059;-40
2023/08/21 08:13:07;;;;;;;8.95;1.35;;;22.90;99.90;;;;;;5071127;28;20449;-42
2023/08/21 08:15:34;;;;;;;8.90;1.37;;;22.90;99.90;;;;;;5070465;28;20029;-39
2023/08/21 08:18:01;;;;;;;4.93;1.05;;;23.00;99.90;;;;;;5070431;28;20282;-45
2023/08/21 08:20:26;;;;;;;3.30;1.92;;;23.10;99.90;;;;;;5074005;28;20119;-41
2023/08/21 08:22:52;;;;;;;7.10;1.45;;;23.40;99.90;;;;;;5073303;28;20878;-46
2023/08/21 08:25:18;;;;;;;4.97;1.20;;;23.60;99.90;;;;;;5075079;28;20049;-46
2023/08/21 08:27:44;;;;;;;5.97;1.30;;;23.80;99.90;;;;;;5075105;28;20024;-42
2023/08/21 08:30:10;;;;;;;6.82;1.00;;;24.00;99.90;;;;;;5072619;28;20024;-42
2023/08/21 08:32:36;;;;;;;5.63;1.38;;;24.10;99.90;;;;;;5054260;28;20033;-44
2023/08/21 08:35:01;;;;;;;4.47;1.42;;;24.20;99.90;;;;;;5073252;28;20503;-42
2023/08/21 08:37:27;;;;;;;5.32;1.30;;;24.30;99.90;;;;;;5074986;28;20477;-41
2023/08/21 08:39:53;;;;;;;9.80;1.70;;;24.20;99.90;;;;;;5073274;28;20477;-41
2023/08/21 08:42:18;;;;;;;5.30;1.20;;;24.40;99.90;;;;;;5072288;28;20078;-42
2023/08/21 08:44:44;;;;;;;4.25;1.30;;;24.50;99.90;;;;;;5073732;28;20067;-40
2023/08/21 08:47:13;;;;;;;5.72;0.82;;;24.80;99.90;;;;;;5070846;28;20102;-42
2023/08/21 08:49:39;;;;;;;3.60;1.05;;;24.90;99.90;;;;;;5073595;28;20116;-43
2023/08/21 08:52:05;;;;;;;6.45;1.20;;;25.00;99.90;;;;;;5066613;28;20056;-46
2023/08/21 08:54:31;;;;;;;7.57;0.98;;;25.10;99.90;;;;;;5054071;28;20531;-47
2023/08/21 08:56:57;;;;;;;4.57;1.40;;;25.20;99.90;;;;;;5072274;28;20028;-48
2023/08/21 08:59:23;;;;;;;5.15;1.35;;;25.40;99.90;;;;;;5057022;28;20028;-53
2023/08/21 09:01:49;;;;;;;6.00;1.38;;;25.60;99.90;;;;;;5054367;28;20104;-50
2023/08/21 09:04:15;;;;;;;4.22;1.23;;;25.80;99.90;;;;;;5054251;28;20541;-52
2023/08/21 09:06:40;;;;;;;3.00;1.30;;;26.00;99.90;;;;;;5054478;28;20024;-50
2023/08/21 09:09:08;;;;;;;2.67;0.93;;;26.20;99.90;;;;;;5054373;28;20025;-53
2023/08/21 09:11:34;;;;;;;3.50;1.20;;;26.30;99.90;;;;;;5054331;28;20032;-53
2023/08/21 09:13:59;;;;;;;7.93;1.48;;;26.30;99.90;;;;;;5054545;28;20040;-52
2023/08/21 09:16:26;;;;;;;4.90;1.25;;;26.50;99.90;;;;;;5054235;28;20025;-42
2023/08/21 09:18:56;;;;;;;10.45;1.15;;;26.60;99.90;;;;;;5054240;28;20481;-43
2023/08/21 09:21:24;;;;;;;3.58;0.73;;;26.90;99.90;;;;;;5054733;28;20021;-41
2023/08/21 09:23:58;;;;;;;4.32;1.15;;;27.10;99.90;;;;;;5054002;28;20021;-46
2023/08/21 09:26:23;;;;;;;10.13;1.55;;;27.30;99.90;;;;;;5053919;28;20398;-41
2023/08/21 09:28:50;;;;;;;2.55;1.00;;;27.30;99.90;;;;;;5057961;28;20004;-43
2023/08/21 09:31:16;;;;;;;;;;;27.50;99.90;;;;;;5074597;28;20028;-39
2023/08/21 09:33:42;;;;;;;6.20;1.45;;;27.70;99.90;;;;;;5073933;28;19904;-43
2023/08/21 09:36:11;;;;;;;1.70;0.75;;;27.90;99.90;;;;;;5073844;28;20028;-43
2023/08/21 09:38:40;;;;;;;4.47;0.93;;;28.30;99.90;;;;;;5073652;28;20050;-42
2023/08/21 09:41:06;;;;;;;6.47;1.17;;;28.60;99.90;;;;;;5073470;28;20029;-43
2023/08/21 09:43:33;;;;;;;2.38;1.10;;;28.80;99.90;;;;;;5073642;28;20019;-52
2023/08/21 09:45:58;;;;;;;2.80;1.00;;;28.80;99.90;;;;;;5073575;28;20147;-53
2023/08/21 09:48:27;;;;;;;2.97;1.13;;;28.70;99.90;;;;;;5073935;28;20082;-52
2023/08/21 09:50:54;;;;;;;3.75;1.38;;;28.90;99.90;;;;;;5073814;28;20470;-53
2023/08/21 09:53:23;;;;;;;3.55;1.00;;;29.10;99.90;;;;;;5073542;28;20027;-51
2023/08/21 09:55:55;;;;;;;5.53;1.55;;;29.30;99.90;;;;;;5073479;28;20028;-53
2023/08/21 09:58:22;;;;;;;6.15;1.23;;;29.00;99.90;;;;;;5072530;28;20020;-53
2023/08/21 10:00:49;;;;;;;4.97;1.20;;;28.60;99.90;;;;;;5073367;28;20028;-53
2023/08/21 10:03:19;;;;;;;6.50;1.13;;;28.60;99.90;;;;;;5055345;28;20032;-52
2023/08/21 10:05:47;;;;;;;1.15;1.00;;;28.70;99.90;;;;;;5073247;28;20099;-50
2023/08/21 10:08:15;;;;;;;2.55;0.98;;;28.80;99.90;;;;;;5073486;28;20021;-54
2023/08/21 10:10:41;;;;;;;4.45;1.10;;;28.90;99.90;;;;;;5073226;28;20016;-53
2023/08/21 10:13:08;;;;;;;3.85;1.55;;;29.00;99.90;;;;;;5073418;28;20492;-53
2023/08/21 10:15:36;;;;;;;3.97;1.27;;;29.00;99.90;;;;;;5073039;28;20111;-53
2023/08/21 10:18:32;;;;;;;7.25;1.70;;;29.00;99.90;;;;;;5073092;28;20070;-53
2023/08/21 10:21:18;;;;;;;;;;;29.00;99.90;;;;;;5053102;28;20516;-52
2023/08/21 10:23:53;;;;;;;1.92;0.80;;;29.00;99.90;;;;;;5072323;28;19912;-53
2023/08/21 10:26:21;;;;;;;4.85;1.00;;;29.00;99.90;;;;;;5072903;28;20505;-52
2023/08/21 10:28:55;;;;;;;0.80;0.60;;;29.00;99.90;;;;;;5073105;28;20412;-53
2023/08/21 10:31:30;;;;;;;5.72;1.55;;;28.90;99.90;;;;;;5072929;28;20485;-52
2023/08/21 10:33:57;;;;;;;7.63;1.05;;;29.10;99.90;;;;;;5072853;28;20078;-53
2023/08/21 10:36:44;;;;;;;3.08;0.70;;;29.20;99.90;;;;;;5073043;28;20048;-53
2023/08/21 10:39:24;;;;;;;4.97;1.20;;;29.20;99.00;;;;;;5072777;28;20024;-51
2023/08/21 10:42:15;;;;;;;0.82;0.63;;;29.00;99.40;;;;;;5072808;28;20396;-52
2023/08/21 10:44:48;;;;;;;1.92;0.70;;;29.10;99.20;;;;;;5054894;28;20027;-53
2023/08/21 10:47:31;;;;;;;2.72;0.75;;;29.10;99.00;;;;;;5072670;28;20035;-53
2023/08/21 10:50:05;;;;;;;2.65;0.98;;;28.90;99.20;;;;;;5073005;28;20024;-53
2023/08/21 10:52:41;;;;;;;3.33;0.90;;;28.50;99.60;;;;;;5072976;28;20532;-48
2023/08/21 10:55:09;;;;;;;2.65;1.20;;;28.60;99.50;;;;;;5054025;28;20033;-53
2023/08/21 10:57:35;;;;;;;2.88;0.88;;;28.60;99.90;;;;;;5072616;28;20085;-49
2023/08/21 11:00:04;;;;;;;4.63;1.00;;;28.60;99.90;;;;;;5072437;28;20032;-51
2023/08/21 11:02:31;;;;;;;4.10;1.00;;;28.50;99.90;;;;;;5072560;28;20059;-53
2023/08/21 11:04:57;;;;;;;1.65;0.70;;;28.20;99.50;;;;;;5072592;28;20017;-53
2023/08/21 11:07:24;;;;;;;5.40;0.80;;;27.50;99.80;;;;;;5072606;28;20029;-53
2023/08/21 11:09:49;;;;;;;0.95;0.68;;;26.80;99.90;;;;;;5075531;28;20423;-52
2023/08/21 11:12:18;;;;;;;5.75;1.38;;;26.70;99.90;;;;;;5076865;28;20021;-51
2023/08/21 11:14:44;;;;;;;4.90;1.58;;;27.00;99.90;;;;;;5058539;28;20020;-51
2023/08/21 11:17:10;;;;;;;6.23;1.23;;;27.30;99.90;;;;;;5076592;28;20496;-53
2023/08/21 11:19:37;;;;;;;1.13;0.70;;;27.30;99.90;;;;;;5076475;28;20024;-52
2023/08/21 11:22:04;;;;;;;0.40;0.30;;;27.30;99.90;;;;;;5076349;28;20020;-50
2023/08/21 11:24:45;;;;;;;1.25;0.40;;;27.40;98.60;;;;;;5076134;28;20048;-52
2023/08/21 11:27:14;;;;;;;10.05;0.70;;;27.40;98.80;;;;;;5076671;28;20430;-53
2023/08/21 11:29:45;;;;;;;2.55;0.50;;;27.50;98.80;;;;;;5088178;28;20107;-50
2023/08/21 11:32:16;;;;;;;3.10;0.50;;;27.50;99.50;;;;;;5096744;28;20016;-52
2023/08/21 11:34:46;;;;;;;0.73;0.40;;;27.70;99.30;;;;;;5096740;28;20377;-50
2023/08/21 11:37:12;;;;;;;5.15;0.68;;;27.80;99.00;;;;;;5096430;28;20020;-53
2023/08/21 11:39:49;;;;;;;1.52;0.50;;;27.90;99.20;;;;;;5096304;28;20073;-53
2023/08/21 11:42:15;;;;;;;5.05;1.10;;;27.80;99.10;;;;;;5096596;28;20389;-53
2023/08/21 11:44:50;;;;;;;1.35;0.68;;;27.90;99.60;;;;;;5096318;28;20035;-52
2023/08/21 11:47:17;;;;;;;1.45;0.68;;;27.90;99.20;;;;;;5096532;28;20546;-53
2023/08/21 11:49:44;;;;;;;1.42;0.73;;;28.00;99.00;;;;;;5096151;28;20028;-53
2023/08/21 11:52:11;;;;;;;0.98;0.70;;;28.20;99.00;;;;;;5096260;28;20048;-51
2023/08/21 11:54:38;;;;;;;0.73;0.43;;;28.30;99.30;;;;;;5096067;28;20020;-52
2023/08/21 11:57:07;;;;;;;;;;;28.50;99.00;;;;;;5096621;28;20081;-53
2023/08/21 11:59:33;;;;;;;2.25;0.52;;;28.60;98.90;;;;;;5072801;28;19909;-52
2023/08/21 12:01:59;;;;;;;2.83;0.52;;;28.60;98.10;;;;;;5065402;28;20104;-52
2023/08/21 12:04:25;;;;;;;1.65;0.50;;;28.60;98.30;;;;;;5064401;28;20033;-50
2023/08/21 12:06:52;;;;;;;3.15;0.90;;;28.60;98.30;;;;;;5074262;28;20401;-52
2023/08/21 12:09:19;;;;;;;0.60;0.38;;;28.50;99.10;;;;;;5074114;28;20029;-51
2023/08/21 12:11:45;;;;;;;0.40;0.40;;;28.50;98.60;;;;;;5069089;28;20111;-53
2023/08/21 12:14:11;;;;;;;2.88;0.80;;;28.50;98.70;;;;;;5075508;28;20047;-51
2023/08/21 12:16:37;;;;;;;2.70;0.80;;;28.70;98.80;;;;;;5074219;28;20063;-53
2023/08/21 12:19:03;;;;;;;3.30;0.57;;;28.80;98.40;;;;;;5074067;28;20393;-53
2023/08/21 12:22:58;;;;;;;3.93;0.90;;;28.70;98.60;;;;;;4813800;27;8289809;-49
2023/08/21 12:25:24;;;;;;;2.92;1.00;;;28.60;99.00;;;;;;5091792;28;20036;-52
2023/08/21 12:27:50;;;;;;;1.65;0.98;;;28.60;98.40;;;;;;5086849;28;20481;-53
2023/08/21 12:30:15;;;;;;;2.83;0.82;;;28.30;98.30;;;;;;5086525;28;20032;-53
2023/08/21 12:32:41;;;;;;;1.73;0.70;;;27.80;99.10;;;;;;5082306;28;20504;-49
2023/08/21 12:35:07;;;;;;;1.30;0.60;;;27.60;99.90;;;;;;5085499;28;20384;-49
2023/08/21 12:37:32;;;;;;;1.55;0.60;;;27.50;99.00;;;;;;5087710;28;20028;-50
2023/08/21 12:39:58;;;;;;;2.10;0.50;;;27.70;99.10;;;;;;5071079;28;20063;-53
2023/08/21 12:42:24;;;;;;;2.13;0.88;;;28.00;99.30;;;;;;5088114;28;20043;-52
2023/08/21 12:44:49;;;;;;;7.72;0.80;;;27.90;99.80;;;;;;5088030;28;20392;-53
2023/08/21 12:47:15;;;;;;;2.90;0.75;;;27.90;99.00;;;;;;5067675;28;20025;-52
2023/08/21 12:49:41;;;;;;;3.13;0.40;;;27.80;99.80;;;;;;5087829;28;20472;-51
2023/08/21 12:52:06;;;;;;;3.17;0.50;;;28.00;98.20;;;;;;5089929;28;20029;-51